Time;durP1;ratioP1;P1;durP2;ratioP2;P2;SDS_P1;SDS_P2;PMS_P1;PMS_P2;Temp;Humidity;BMP_temperature;BMP_pressure;BME280_temperature;BME280_humidity;BME280_pressure;Samples;Min_cycle;Max_cycle;Signal;HPM_P1;HPM_P2
2022/12/31 00:01:18;;;;;;;8.55;3.78;;;11.10;99.90;;;;;;5084980;28;20055;-60
2022/12/31 00:03:44;;;;;;;9.20;3.70;;;11.10;99.90;;;;;;5084851;28;20028;-60
2022/12/31 00:06:35;;;;;;;7.85;3.45;;;11.10;99.90;;;;;;5084670;28;20020;-60
2022/12/31 00:09:03;;;;;;;6.70;3.15;;;11.10;99.90;;;;;;5083729;28;20052;-59
2022/12/31 00:11:29;;;;;;;9.05;3.45;;;11.10;99.90;;;;;;5084819;28;20012;-59
2022/12/31 00:13:54;;;;;;;6.65;3.22;;;11.10;99.90;;;;;;5084553;28;20149;-60
2022/12/31 00:16:25;;;;;;;6.70;3.55;;;11.10;99.90;;;;;;5084480;28;20021;-60
2022/12/31 00:18:53;;;;;;;8.77;3.70;;;11.10;99.90;;;;;;5067712;28;20043;-59
2022/12/31 00:21:18;;;;;;;8.07;3.42;;;11.10;99.90;;;;;;5084560;28;20074;-59
2022/12/31 00:23:44;;;;;;;5.75;3.15;;;11.10;99.90;;;;;;5084439;28;20052;-60
2022/12/31 00:26:12;;;;;;;11.30;3.60;;;11.10;99.90;;;;;;5084507;28;20044;-59
2022/12/31 00:28:38;;;;;;;6.55;3.25;;;11.10;99.90;;;;;;5084013;28;20040;-59
2022/12/31 00:31:17;;;;;;;6.10;3.22;;;11.10;99.90;;;;;;5067629;28;20025;-60
2022/12/31 00:33:43;;;;;;;5.15;2.97;;;11.10;99.90;;;;;;5067334;28;20128;-60
2022/12/31 00:36:10;;;;;;;4.95;2.90;;;11.10;99.90;;;;;;5084669;28;20017;-60
2022/12/31 00:38:36;;;;;;;5.47;2.92;;;11.10;99.90;;;;;;5084107;28;20032;-60
2022/12/31 00:41:02;;;;;;;5.05;2.47;;;11.10;99.90;;;;;;5084329;28;20029;-60
2022/12/31 00:43:28;;;;;;;6.97;2.80;;;11.20;99.90;;;;;;5084161;28;20039;-60
2022/12/31 00:45:53;;;;;;;5.05;2.42;;;11.10;99.90;;;;;;5085238;28;20032;-60
2022/12/31 00:48:19;;;;;;;6.55;2.70;;;11.20;99.90;;;;;;5083852;28;20044;-60
2022/12/31 00:50:44;;;;;;;8.52;3.17;;;11.20;99.90;;;;;;5085172;28;20028;-60
2022/12/31 00:53:10;;;;;;;6.43;2.90;;;11.20;99.90;;;;;;5083878;28;20020;-59
2022/12/31 00:55:35;;;;;;;6.25;3.20;;;11.20;99.90;;;;;;5085279;28;20024;-60
2022/12/31 00:58:01;;;;;;;4.38;2.63;;;11.20;99.90;;;;;;5085079;28;20024;-59
2022/12/31 01:00:26;;;;;;;4.60;2.65;;;11.20;99.90;;;;;;5083854;28;20033;-60
2022/12/31 01:02:52;;;;;;;6.07;2.65;;;11.20;99.90;;;;;;5083855;28;20052;-60
2022/12/31 01:05:17;;;;;;;4.05;2.72;;;11.20;99.90;;;;;;5085114;28;20040;-60
2022/12/31 01:07:43;;;;;;;4.60;2.55;;;11.20;99.90;;;;;;5083969;28;20032;-60
2022/12/31 01:10:08;;;;;;;5.18;2.70;;;11.20;99.90;;;;;;5083666;28;20025;-60
2022/12/31 01:12:34;;;;;;;8.48;2.50;;;11.20;99.90;;;;;;5083738;28;20067;-60
2022/12/31 01:14:59;;;;;;;7.40;2.83;;;11.20;99.90;;;;;;5085237;28;20031;-60
2022/12/31 01:17:25;;;;;;;3.28;2.63;;;11.20;99.90;;;;;;5083469;28;20119;-59
2022/12/31 01:19:51;;;;;;;4.53;2.65;;;11.20;99.90;;;;;;5066877;28;20029;-60
2022/12/31 01:22:16;;;;;;;4.35;2.30;;;11.20;99.90;;;;;;5083770;28;20378;-59
2022/12/31 01:24:42;;;;;;;4.07;2.53;;;11.20;99.90;;;;;;5066745;28;20028;-60
2022/12/31 01:27:07;;;;;;;3.65;2.53;;;11.20;99.90;;;;;;5083583;28;20067;-60
2022/12/31 01:29:33;;;;;;;4.95;2.40;;;11.20;99.90;;;;;;5083514;28;20071;-60
2022/12/31 01:31:58;;;;;;;6.15;2.67;;;11.20;99.90;;;;;;5066596;28;20024;-60
2022/12/31 01:34:24;;;;;;;5.20;2.58;;;11.20;99.90;;;;;;5083552;28;20039;-59
2022/12/31 01:36:49;;;;;;;4.13;2.55;;;11.20;99.90;;;;;;5083318;28;20039;-59
2022/12/31 01:39:15;;;;;;;4.03;2.38;;;11.20;99.90;;;;;;5083322;28;20021;-60
2022/12/31 01:41:42;;;;;;;5.50;2.90;;;11.20;99.90;;;;;;5083463;28;20349;-59
2022/12/31 01:44:11;;;;;;;4.30;2.75;;;11.30;99.90;;;;;;5083112;28;20096;-60
2022/12/31 01:46:45;;;;;;;4.30;2.28;;;11.20;99.90;;;;;;5084666;28;20033;-59
2022/12/31 01:49:19;;;;;;;4.65;2.38;;;11.20;99.90;;;;;;5083257;28;20034;-60
2022/12/31 01:51:47;;;;;;;5.63;2.50;;;11.20;99.90;;;;;;5086069;28;20021;-60
2022/12/31 01:54:13;;;;;;;4.25;2.47;;;11.30;99.90;;;;;;5087341;28;20084;-59
2022/12/31 01:56:39;;;;;;;4.55;2.30;;;11.20;99.90;;;;;;5087167;28;20021;-60
2022/12/31 01:59:06;;;;;;;3.55;2.50;;;11.30;99.90;;;;;;5087262;28;20029;-60
2022/12/31 02:01:31;;;;;;;3.95;2.42;;;11.30;99.90;;;;;;5087174;28;20035;-60
2022/12/31 02:03:57;;;;;;;3.63;2.40;;;11.30;99.90;;;;;;5087156;28;20131;-60
2022/12/31 02:06:30;;;;;;;4.13;2.67;;;11.30;99.90;;;;;;5087272;28;20097;-59
2022/12/31 02:08:55;;;;;;;3.80;2.15;;;11.30;99.90;;;;;;5086957;28;20024;-60
2022/12/31 02:11:26;;;;;;;6.72;2.55;;;11.30;99.90;;;;;;5087111;28;20119;-60
2022/12/31 02:13:53;;;;;;;4.18;2.80;;;11.30;99.90;;;;;;5087075;28;20048;-60
2022/12/31 02:16:27;;;;;;;4.03;2.53;;;11.30;99.90;;;;;;5087088;28;20155;-60
2022/12/31 02:18:56;;;;;;;4.75;2.50;;;11.30;99.90;;;;;;5088340;28;20039;-60
2022/12/31 02:21:31;;;;;;;5.60;2.85;;;11.30;99.90;;;;;;5069921;28;20040;-59
2022/12/31 02:24:20;;;;;;;7.15;3.15;;;11.30;99.90;;;;;;5088177;28;20032;-59
2022/12/31 02:26:52;;;;;;;5.50;3.80;;;11.30;99.90;;;;;;5088023;28;20055;-59
2022/12/31 02:29:39;;;;;;;5.18;3.90;;;11.30;99.90;;;;;;5086750;28;20096;-59
2022/12/31 02:32:10;;;;;;;9.05;5.13;;;11.30;99.90;;;;;;5088009;28;20029;-60
2022/12/31 02:34:37;;;;;;;7.53;5.55;;;11.30;99.90;;;;;;5086458;28;20029;-59
2022/12/31 02:37:03;;;;;;;9.27;6.80;;;11.30;99.90;;;;;;5086459;28;20042;-59
2022/12/31 02:39:29;;;;;;;12.07;7.80;;;11.30;99.90;;;;;;5086480;28;20024;-60
2022/12/31 02:41:54;;;;;;;10.45;7.90;;;11.30;99.90;;;;;;5086605;28;20064;-60
2022/12/31 02:44:25;;;;;;;13.63;7.45;;;11.30;99.90;;;;;;5087139;28;20028;-59
2022/12/31 02:46:56;;;;;;;11.88;9.38;;;11.40;99.90;;;;;;5086665;28;20029;-60
2022/12/31 02:50:00;;;;;;;17.58;11.73;;;11.30;99.90;;;;;;5085310;28;20039;-60
2022/12/31 02:52:55;;;;;;;14.75;10.70;;;11.40;99.90;;;;;;5086314;28;20048;-60
2022/12/31 02:55:54;;;;;;;12.98;9.95;;;11.40;99.90;;;;;;5049901;28;20041;-59
2022/12/31 03:06:53;;;;;;;10.38;8.13;;;11.40;99.90;;;;;;5085174;28;20039;-59
2022/12/31 03:09:19;;;;;;;11.00;8.07;;;11.40;99.90;;;;;;5084940;28;20032;-59
2022/12/31 03:14:28;;;;;;;9.75;7.63;;;11.40;99.90;;;;;;5085045;28;20044;-59
2022/12/31 03:16:54;;;;;;;9.10;6.35;;;11.40;99.90;;;;;;5084767;28;20028;-59
2022/12/31 03:27:31;;;;;;;11.20;6.47;;;11.40;99.90;;;;;;5084782;28;20028;-59
2022/12/31 03:29:57;;;;;;;8.80;6.97;;;11.40;99.90;;;;;;5084413;28;20036;-59
2022/12/31 03:32:22;;;;;;;9.35;6.03;;;11.40;99.90;;;;;;5085885;28;20024;-59
2022/12/31 03:34:48;;;;;;;7.53;5.80;;;11.40;99.90;;;;;;5084539;28;20040;-60
2022/12/31 03:37:13;;;;;;;8.02;6.13;;;11.40;99.90;;;;;;5085715;28;20025;-58
2022/12/31 03:39:39;;;;;;;8.82;6.32;;;11.40;99.90;;;;;;5084441;28;20025;-60
2022/12/31 03:42:05;;;;;;;7.47;5.82;;;11.40;99.90;;;;;;5085820;28;20042;-59
2022/12/31 03:44:30;;;;;;;6.90;5.57;;;11.40;99.90;;;;;;5047289;28;1062285;-60
2022/12/31 03:46:56;;;;;;;6.95;5.43;;;11.40;99.90;;;;;;5086474;28;20103;-60
2022/12/31 03:49:21;;;;;;;8.23;5.78;;;11.60;99.90;;;;;;5086569;28;20094;-60
2022/12/31 03:51:47;;;;;;;7.18;5.45;;;11.40;99.90;;;;;;5086223;28;20032;-60
2022/12/31 03:54:12;;;;;;;6.60;5.13;;;11.50;99.90;;;;;;5086418;28;20058;-60
2022/12/31 03:56:38;;;;;;;7.13;5.45;;;11.40;99.90;;;;;;5084991;28;20067;-59
2022/12/31 03:59:03;;;;;;;7.45;5.63;;;11.40;99.90;;;;;;5084976;28;20029;-60
2022/12/31 04:01:29;;;;;;;5.40;4.50;;;11.40;99.90;;;;;;5085024;28;20135;-60
2022/12/31 04:03:54;;;;;;;7.32;5.03;;;11.40;99.90;;;;;;5086152;28;20116;-59
2022/12/31 04:06:20;;;;;;;8.02;4.90;;;11.40;99.90;;;;;;5084989;28;20084;-59
2022/12/31 04:08:45;;;;;;;6.15;4.03;;;11.40;99.90;;;;;;5086132;28;20032;-59
2022/12/31 04:11:11;;;;;;;6.45;4.03;;;11.40;99.90;;;;;;5086045;28;20044;-60
2022/12/31 04:13:36;;;;;;;6.30;4.35;;;11.40;99.90;;;;;;5083974;28;20029;-60
2022/12/31 04:16:02;;;;;;;8.70;5.15;;;11.50;99.90;;;;;;5084138;28;20025;-59
2022/12/31 04:18:27;;;;;;;6.45;4.40;;;11.50;99.90;;;;;;5085852;28;20025;-59
2022/12/31 04:20:53;;;;;;;7.18;4.65;;;11.40;99.90;;;;;;5084524;28;20021;-60
2022/12/31 04:23:18;;;;;;;5.60;4.35;;;11.50;99.90;;;;;;5085725;28;20097;-59
2022/12/31 04:25:44;;;;;;;6.03;3.90;;;11.50;99.90;;;;;;5085784;28;20056;-58
2022/12/31 04:28:09;;;;;;;5.03;4.10;;;11.50;99.90;;;;;;5084631;28;20020;-60
2022/12/31 04:30:35;;;;;;;5.60;3.67;;;11.50;99.90;;;;;;5084531;28;20130;-59
2022/12/31 04:33:00;;;;;;;5.70;4.20;;;11.50;99.90;;;;;;5084126;28;20048;-60
2022/12/31 04:35:26;;;;;;;5.32;3.80;;;11.50;99.90;;;;;;5085711;28;20039;-59
2022/12/31 04:37:51;;;;;;;4.43;3.92;;;11.50;99.90;;;;;;5067539;28;20020;-59
2022/12/31 04:40:17;;;;;;;4.43;3.65;;;11.50;99.90;;;;;;5084189;28;20107;-60
2022/12/31 04:42:42;;;;;;;4.90;3.72;;;11.50;99.90;;;;;;5084278;28;20034;-60
2022/12/31 04:45:08;;;;;;;6.05;3.63;;;11.50;99.90;;;;;;5083872;28;20488;-60
2022/12/31 04:47:34;;;;;;;5.68;4.00;;;11.50;99.90;;;;;;5085571;28;20024;-60
2022/12/31 04:49:59;;;;;;;5.20;3.65;;;11.50;99.90;;;;;;5084058;28;20059;-60
2022/12/31 04:52:25;;;;;;;6.60;3.70;;;11.50;99.90;;;;;;5085154;28;20099;-59
2022/12/31 04:54:50;;;;;;;5.53;3.90;;;11.50;99.90;;;;;;5083825;28;20029;-60
2022/12/31 04:57:16;;;;;;;6.85;3.13;;;11.50;99.90;;;;;;5085301;28;20130;-59
2022/12/31 04:59:41;;;;;;;5.90;3.13;;;11.50;99.90;;;;;;5085166;28;20369;-59
2022/12/31 05:02:07;;;;;;;4.15;2.95;;;11.50;99.90;;;;;;5083869;28;20033;-59
2022/12/31 05:04:32;;;;;;;4.43;2.97;;;11.50;99.90;;;;;;5085288;28;20043;-60
2022/12/31 05:06:58;;;;;;;3.72;2.80;;;11.50;99.90;;;;;;5085138;28;20035;-60
2022/12/31 05:09:26;;;;;;;4.30;3.13;;;11.50;99.90;;;;;;5083785;28;20028;-60
2022/12/31 05:11:51;;;;;;;3.60;2.90;;;11.50;99.90;;;;;;5083674;28;20032;-60
2022/12/31 05:14:17;;;;;;;3.10;2.33;;;11.60;99.90;;;;;;5083504;28;20047;-60
2022/12/31 05:16:42;;;;;;;3.92;2.92;;;11.50;99.90;;;;;;5085020;28;20036;-60
2022/12/31 05:19:08;;;;;;;3.13;2.70;;;11.60;99.90;;;;;;5083325;28;20039;-59
2022/12/31 05:21:34;;;;;;;4.75;3.20;;;11.50;99.90;;;;;;5083415;28;20040;-59
2022/12/31 05:23:59;;;;;;;3.35;2.60;;;11.60;99.90;;;;;;5083375;28;20047;-59
2022/12/31 05:26:25;;;;;;;4.25;2.90;;;11.50;99.90;;;;;;5083295;28;20024;-60
2022/12/31 05:28:50;;;;;;;4.70;2.95;;;11.50;99.90;;;;;;5083512;28;20039;-59
2022/12/31 05:31:16;;;;;;;3.90;2.70;;;11.60;99.90;;;;;;5083583;28;20044;-60
2022/12/31 05:33:41;;;;;;;5.05;2.80;;;11.60;99.90;;;;;;5084651;28;20088;-59
2022/12/31 05:36:07;;;;;;;3.10;2.75;;;11.60;99.90;;;;;;5083383;28;20047;-60
2022/12/31 05:38:33;;;;;;;2.20;1.92;;;11.60;99.90;;;;;;5084822;28;20044;-60
2022/12/31 05:41:03;;;;;;;3.42;2.20;;;11.60;99.90;;;;;;5083284;28;20028;-59
2022/12/31 05:43:28;;;;;;;3.80;2.30;;;11.60;99.90;;;;;;5084823;28;20074;-59
2022/12/31 05:45:54;;;;;;;2.80;2.30;;;11.60;99.90;;;;;;5083269;28;20028;-60
2022/12/31 05:48:19;;;;;;;3.67;2.35;;;11.60;99.90;;;;;;5083329;28;20028;-59
2022/12/31 05:50:45;;;;;;;3.92;2.42;;;11.60;99.90;;;;;;5084782;28;20048;-59
2022/12/31 05:53:10;;;;;;;4.22;2.45;;;11.60;99.90;;;;;;5084363;28;20024;-60
2022/12/31 05:55:36;;;;;;;5.07;2.22;;;11.60;99.90;;;;;;5066422;28;20047;-60
2022/12/31 05:58:01;;;;;;;3.20;2.30;;;11.60;99.90;;;;;;5084318;28;20056;-60
2022/12/31 06:00:27;;;;;;;2.88;2.22;;;11.60;99.90;;;;;;5083337;28;20036;-60
2022/12/31 06:02:52;;;;;;;3.80;2.22;;;11.60;99.90;;;;;;5083307;28;20055;-59
2022/12/31 06:05:18;;;;;;;3.97;2.10;;;11.60;99.90;;;;;;5083178;28;20029;-60
2022/12/31 06:07:44;;;;;;;3.70;2.50;;;11.60;99.90;;;;;;5082994;28;20119;-60
2022/12/31 06:10:09;;;;;;;2.88;2.30;;;11.60;99.90;;;;;;5084251;28;20028;-60
2022/12/31 06:12:35;;;;;;;3.92;2.10;;;11.60;99.90;;;;;;5083029;28;20043;-60
2022/12/31 06:15:00;;;;;;;2.67;1.65;;;11.60;99.90;;;;;;5066314;28;20016;-60
2022/12/31 06:17:26;;;;;;;2.88;2.30;;;11.60;99.90;;;;;;5084201;28;20025;-59
2022/12/31 06:19:51;;;;;;;3.30;2.50;;;11.60;99.90;;;;;;5066284;28;20016;-59
2022/12/31 06:22:17;;;;;;;2.45;1.95;;;11.60;99.90;;;;;;5083031;28;20036;-59
2022/12/31 06:24:42;;;;;;;3.42;2.08;;;11.60;99.90;;;;;;5066014;28;20036;-60
2022/12/31 06:27:08;;;;;;;2.80;1.90;;;11.60;99.90;;;;;;5066112;28;20142;-59
2022/12/31 06:29:33;;;;;;;3.20;2.05;;;11.60;99.90;;;;;;5082861;28;20028;-60
2022/12/31 06:31:59;;;;;;;2.63;2.00;;;11.60;99.90;;;;;;5082832;28;20032;-60
2022/12/31 06:34:25;;;;;;;2.72;1.98;;;11.60;99.90;;;;;;5084325;28;20021;-60
2022/12/31 06:36:50;;;;;;;2.72;2.00;;;11.60;99.90;;;;;;5082872;28;20170;-60
2022/12/31 06:39:16;;;;;;;3.28;2.28;;;11.60;99.90;;;;;;5086309;28;20089;-59
2022/12/31 06:41:41;;;;;;;2.45;1.75;;;11.60;99.90;;;;;;5086406;28;20029;-60
2022/12/31 06:44:07;;;;;;;2.67;2.00;;;11.60;99.90;;;;;;5086289;28;20182;-60
2022/12/31 06:46:32;;;;;;;2.70;1.80;;;11.60;99.90;;;;;;5086444;28;20032;-60
2022/12/31 06:48:58;;;;;;;3.03;1.85;;;11.60;99.90;;;;;;5087568;28;20032;-60
2022/12/31 06:51:23;;;;;;;3.58;1.90;;;11.60;99.90;;;;;;5086259;28;20120;-59
2022/12/31 06:53:49;;;;;;;3.63;2.10;;;11.60;99.90;;;;;;5085986;28;20036;-59
2022/12/31 06:56:20;;;;;;;3.10;2.00;;;11.60;99.90;;;;;;5086054;28;20494;-60
2022/12/31 06:58:46;;;;;;;3.10;2.08;;;11.60;99.90;;;;;;5085864;28;20054;-60
2022/12/31 07:01:42;;;;;;;2.95;1.98;;;11.60;99.90;;;;;;5086149;28;20060;-59
2022/12/31 07:04:40;;;;;;;2.72;1.98;;;11.60;99.90;;;;;;5085965;28;20063;-59
2022/12/31 07:07:07;;;;;;;2.70;1.80;;;11.60;99.90;;;;;;5086136;28;20037;-59
2022/12/31 07:09:57;;;;;;;4.50;2.10;;;11.60;99.90;;;;;;5085856;28;20096;-60
2022/12/31 07:12:25;;;;;;;2.13;1.70;;;11.60;99.90;;;;;;5087183;28;20033;-59
2022/12/31 07:14:57;;;;;;;2.90;2.03;;;11.60;99.90;;;;;;5087246;28;20035;-60
2022/12/31 07:17:47;;;;;;;4.68;1.98;;;11.60;99.90;;;;;;5069023;28;20141;-59
2022/12/31 07:20:17;;;;;;;2.08;1.65;;;11.60;99.90;;;;;;5085993;28;20029;-59
2022/12/31 07:22:43;;;;;;;2.10;1.88;;;11.60;99.90;;;;;;5085917;28;20052;-59
2022/12/31 07:25:12;;;;;;;2.42;1.90;;;11.50;99.90;;;;;;5085574;28;20067;-59
2022/12/31 07:28:03;;;;;;;2.97;1.80;;;11.50;99.90;;;;;;5085614;28;20032;-59
2022/12/31 07:30:51;;;;;;;2.03;1.75;;;11.60;99.90;;;;;;5085638;28;20096;-60
2022/12/31 07:33:42;;;;;;;2.63;1.77;;;11.60;99.90;;;;;;5085457;28;20040;-60
2022/12/31 07:36:35;;;;;;;2.83;1.75;;;11.50;99.90;;;;;;5085824;28;20043;-60
2022/12/31 07:39:13;;;;;;;3.78;1.65;;;11.60;99.90;;;;;;5085446;28;20033;-59
2022/12/31 07:42:00;;;;;;;2.70;1.70;;;11.50;99.90;;;;;;5085429;28;20025;-60
2022/12/31 07:44:56;;;;;;;1.63;1.50;;;11.50;99.90;;;;;;5085288;28;20025;-60
2022/12/31 07:47:23;;;;;;;2.05;1.80;;;11.50;99.90;;;;;;5085387;28;20108;-60
2022/12/31 07:49:49;;;;;;;2.13;1.50;;;11.50;99.90;;;;;;5083947;28;20029;-59
2022/12/31 07:52:15;;;;;;;3.55;1.83;;;11.50;99.90;;;;;;5068238;28;20082;-60
2022/12/31 07:54:41;;;;;;;1.58;1.48;;;11.50;99.90;;;;;;5086453;28;20459;-59
2022/12/31 07:57:08;;;;;;;2.50;1.70;;;11.50;99.90;;;;;;5086520;28;20048;-60
2022/12/31 07:59:49;;;;;;;3.53;1.75;;;11.60;99.90;;;;;;5068193;28;20039;-60
2022/12/31 08:02:32;;;;;;;1.95;1.40;;;11.50;99.90;;;;;;5085036;28;20205;-59
2022/12/31 08:05:16;;;;;;;3.00;1.65;;;11.60;99.90;;;;;;5084682;28;20033;-59
2022/12/31 08:07:59;;;;;;;2.38;1.98;;;11.50;99.90;;;;;;5085849;28;20472;-60
2022/12/31 08:11:10;;;;;;;2.30;1.50;;;11.60;99.90;;;;;;5084713;28;20117;-59
2022/12/31 08:13:36;;;;;;;2.05;1.48;;;11.50;99.90;;;;;;5084226;28;20495;-59
2022/12/31 08:16:02;;;;;;;1.60;1.30;;;11.50;99.90;;;;;;5084668;28;20033;-60
2022/12/31 08:18:28;;;;;;;3.80;1.83;;;11.50;99.90;;;;;;5085955;28;20095;-60
2022/12/31 08:20:59;;;;;;;3.90;1.70;;;11.50;99.90;;;;;;5084355;28;20028;-60
2022/12/31 08:23:30;;;;;;;4.60;1.92;;;11.60;99.90;;;;;;5084496;28;20119;-59
2022/12/31 08:25:59;;;;;;;6.63;1.75;;;11.50;99.90;;;;;;5084581;28;20032;-59
2022/12/31 08:28:52;;;;;;;2.85;1.63;;;11.60;99.90;;;;;;5085738;28;20029;-59
2022/12/31 08:31:24;;;;;;;3.47;2.08;;;11.60;99.90;;;;;;5085816;28;20028;-59
2022/12/31 08:34:04;;;;;;;3.08;1.95;;;11.60;99.90;;;;;;5083906;28;20366;-59
2022/12/31 08:37:07;;;;;;;2.88;1.85;;;11.60;99.90;;;;;;5085693;28;20047;-60
2022/12/31 08:39:32;;;;;;;2.83;1.85;;;11.60;99.90;;;;;;5085634;28;20032;-59
2022/12/31 08:41:58;;;;;;;1.80;1.60;;;11.60;99.90;;;;;;5085880;28;20421;-59
2022/12/31 08:44:42;;;;;;;2.33;1.70;;;11.60;99.90;;;;;;5083770;28;20032;-59
2022/12/31 08:47:16;;;;;;;4.53;2.00;;;11.60;99.90;;;;;;5084031;28;20365;-59
2022/12/31 08:49:42;;;;;;;3.15;1.77;;;11.60;99.90;;;;;;5084025;28;20025;-59
2022/12/31 08:52:28;;;;;;;3.75;1.65;;;11.50;99.90;;;;;;5083926;28;20094;-60
2022/12/31 08:54:53;;;;;;;;;;;11.50;99.90;;;;;;5117943;28;20040;-59
2022/12/31 08:57:22;;;;;;;4.22;1.90;;;11.50;99.90;;;;;;5117845;28;19930;-60
2022/12/31 08:59:51;;;;;;;4.65;1.88;;;11.50;99.90;;;;;;5083519;28;20048;-59
2022/12/31 09:02:51;;;;;;;5.00;2.10;;;11.50;99.90;;;;;;5085160;28;20094;-59
2022/12/31 09:05:25;;;;;;;3.75;1.58;;;11.60;99.90;;;;;;5069128;28;20158;-59
2022/12/31 09:08:06;;;;;;;3.10;1.80;;;11.60;99.90;;;;;;5083787;28;20131;-59
2022/12/31 09:10:33;;;;;;;5.63;2.10;;;11.60;99.90;;;;;;5083792;28;20121;-59
2022/12/31 09:13:21;;;;;;;2.45;1.70;;;11.60;99.90;;;;;;5083392;28;20029;-59
2022/12/31 09:16:12;;;;;;;4.65;1.55;;;11.60;99.90;;;;;;5084988;28;20445;-59
2022/12/31 09:18:39;;;;;;;3.30;1.83;;;11.60;99.90;;;;;;5083531;28;20036;-60
2022/12/31 09:21:07;;;;;;;6.10;1.90;;;11.60;99.90;;;;;;5083539;28;20024;-59
2022/12/31 09:23:33;;;;;;;1.88;1.48;;;11.60;99.90;;;;;;5084898;28;20475;-60
2022/12/31 09:26:36;;;;;;;2.95;1.90;;;11.60;99.90;;;;;;5083402;28;20033;-60
2022/12/31 09:29:33;;;;;;;3.45;1.90;;;11.60;99.90;;;;;;5084841;28;20462;-60
2022/12/31 09:32:43;;;;;;;2.65;1.48;;;11.60;99.90;;;;;;5084688;28;20096;-59
2022/12/31 09:35:35;;;;;;;2.47;1.80;;;11.60;99.90;;;;;;5082393;28;20104;-59
2022/12/31 09:38:17;;;;;;;2.92;1.80;;;11.60;99.90;;;;;;5082730;28;20067;-59
2022/12/31 09:40:49;;;;;;;4.72;1.75;;;11.60;99.90;;;;;;5066714;28;20429;-59
2022/12/31 09:43:20;;;;;;;2.78;1.67;;;11.60;99.90;;;;;;5084598;28;20021;-60
2022/12/31 09:45:57;;;;;;;3.10;1.67;;;11.70;99.90;;;;;;5083495;28;20029;-59
2022/12/31 09:48:42;;;;;;;5.65;2.00;;;11.60;99.90;;;;;;5083313;28;20115;-59
2022/12/31 09:51:27;;;;;;;4.03;1.50;;;11.70;99.90;;;;;;5066511;28;20047;-59
2022/12/31 09:54:05;;;;;;;4.05;1.60;;;11.60;99.90;;;;;;5083105;28;20044;-60
2022/12/31 09:57:14;;;;;;;3.45;1.80;;;11.70;99.90;;;;;;5083174;28;20464;-59
2022/12/31 09:59:45;;;;;;;2.70;1.60;;;11.70;99.90;;;;;;5084672;28;20032;-59
2022/12/31 10:02:29;;;;;;;3.00;1.75;;;11.60;99.90;;;;;;5083251;28;20035;-59
2022/12/31 10:05:19;;;;;;;2.67;1.50;;;11.70;99.90;;;;;;5084573;28;20016;-59
2022/12/31 10:07:54;;;;;;;5.93;1.85;;;11.70;99.90;;;;;;5082882;28;20115;-60
2022/12/31 10:10:29;;;;;;;3.58;1.58;;;11.70;99.90;;;;;;5083176;28;20055;-59
2022/12/31 10:13:00;;;;;;;5.70;2.08;;;11.70;99.90;;;;;;5067754;28;20033;-59
2022/12/31 10:15:52;;;;;;;2.92;1.95;;;11.60;99.90;;;;;;5087139;28;20098;-59
2022/12/31 10:18:33;;;;;;;2.10;1.60;;;11.70;99.90;;;;;;5086829;28;20113;-60
2022/12/31 10:21:26;;;;;;;2.67;1.80;;;11.70;99.90;;;;;;5088348;28;20075;-60
2022/12/31 10:24:04;;;;;;;6.30;1.70;;;11.70;99.90;;;;;;5088147;28;20024;-59
2022/12/31 10:26:35;;;;;;;2.15;1.73;;;11.70;99.90;;;;;;5088294;28;20042;-59
2022/12/31 10:29:21;;;;;;;3.33;1.70;;;11.70;99.90;;;;;;5087899;28;20032;-59
2022/12/31 10:31:55;;;;;;;2.47;1.60;;;11.70;99.90;;;;;;5086616;28;20043;-60
2022/12/31 10:34:53;;;;;;;2.65;1.77;;;11.70;99.90;;;;;;5088022;28;20131;-59
2022/12/31 10:37:40;;;;;;;3.10;1.80;;;11.70;99.90;;;;;;5086986;28;20067;-60
2022/12/31 10:40:31;;;;;;;2.47;1.38;;;11.70;99.90;;;;;;5088084;28;20035;-59
2022/12/31 10:43:16;;;;;;;2.03;1.52;;;11.70;99.90;;;;;;5086537;28;20036;-59
2022/12/31 10:46:06;;;;;;;2.80;1.57;;;11.70;99.90;;;;;;5071030;28;20047;-59
2022/12/31 10:48:46;;;;;;;2.22;1.67;;;11.80;99.90;;;;;;5087683;28;20029;-59
2022/12/31 10:51:49;;;;;;;1.63;1.50;;;11.70;99.90;;;;;;5087452;28;20043;-59
2022/12/31 10:54:18;;;;;;;2.15;1.50;;;11.80;99.90;;;;;;5087427;28;20032;-59
2022/12/31 10:56:52;;;;;;;2.60;1.27;;;11.80;99.90;;;;;;5087678;28;20024;-59
2022/12/31 10:59:55;;;;;;;3.78;1.58;;;11.80;99.90;;;;;;5087387;28;20033;-59
2022/12/31 11:02:27;;;;;;;1.98;1.38;;;11.80;99.90;;;;;;5087251;28;20025;-59
2022/12/31 11:05:28;;;;;;;2.35;1.23;;;11.80;99.90;;;;;;5087482;28;20046;-59
2022/12/31 11:08:18;;;;;;;1.75;1.40;;;11.80;99.90;;;;;;5120126;28;20047;-59
2022/12/31 11:11:07;;;;;;;4.70;1.83;;;11.90;99.90;;;;;;5087353;28;20036;-60
2022/12/31 11:13:51;;;;;;;2.30;1.40;;;11.80;99.90;;;;;;5086009;28;20032;-59
2022/12/31 11:16:31;;;;;;;2.03;1.35;;;11.90;99.90;;;;;;5087408;28;20096;-59
2022/12/31 11:19:11;;;;;;;3.15;1.67;;;11.90;99.90;;;;;;5085792;28;20044;-59
2022/12/31 11:21:45;;;;;;;2.35;1.55;;;11.90;99.90;;;;;;5086033;28;20020;-59
2022/12/31 11:24:40;;;;;;;2.80;1.60;;;11.90;99.90;;;;;;5085423;28;20028;-59
2022/12/31 11:27:56;;;;;;;1.38;1.15;;;11.90;99.90;;;;;;5085597;28;20038;-60
2022/12/31 11:30:40;;;;;;;1.65;1.27;;;11.90;99.90;;;;;;5085607;28;20051;-60
2022/12/31 11:33:44;;;;;;;2.10;1.23;;;11.90;99.90;;;;;;5068655;28;20024;-60
2022/12/31 11:36:18;;;;;;;2.85;1.50;;;11.90;99.90;;;;;;5086807;28;20032;-60
2022/12/31 11:38:46;;;;;;;2.10;1.45;;;12.00;99.90;;;;;;5085242;28;20099;-59
2022/12/31 11:41:32;;;;;;;4.13;1.73;;;11.90;99.90;;;;;;5086806;28;20029;-59
2022/12/31 11:44:18;;;;;;;2.42;1.50;;;12.00;99.90;;;;;;5085390;28;20062;-59
2022/12/31 11:46:55;;;;;;;2.13;1.58;;;12.00;99.90;;;;;;5085429;28;20032;-59
2022/12/31 11:49:30;;;;;;;3.45;1.35;;;12.00;99.90;;;;;;5086815;28;20054;-59
2022/12/31 11:52:20;;;;;;;4.25;1.60;;;12.00;99.90;;;;;;5086515;28;20028;-59
2022/12/31 11:54:56;;;;;;;2.10;1.40;;;12.00;99.90;;;;;;5085101;28;20412;-60
2022/12/31 11:57:38;;;;;;;1.92;1.48;;;12.00;99.90;;;;;;5085133;28;20025;-59
2022/12/31 12:00:25;;;;;;;2.58;1.42;;;12.00;99.90;;;;;;5068266;28;20040;-60
2022/12/31 12:02:54;;;;;;;1.58;1.30;;;12.00;99.90;;;;;;5084840;28;20029;-60
2022/12/31 12:05:22;;;;;;;2.53;1.58;;;12.10;99.90;;;;;;5084991;28;20020;-59
2022/12/31 12:07:48;;;;;;;2.05;1.42;;;12.10;99.90;;;;;;5085085;28;20036;-59
2022/12/31 12:10:37;;;;;;;1.90;1.48;;;12.00;99.90;;;;;;5086252;28;20032;-59
2022/12/31 12:13:18;;;;;;;2.22;1.42;;;12.10;99.90;;;;;;5084757;28;20041;-59
2022/12/31 12:15:46;;;;;;;2.47;1.48;;;12.10;99.90;;;;;;5084970;28;20036;-59
2022/12/31 12:18:39;;;;;;;2.47;1.67;;;12.10;99.90;;;;;;5084668;28;20016;-59
2022/12/31 12:21:16;;;;;;;2.17;1.27;;;12.10;99.90;;;;;;5084455;28;20036;-59
2022/12/31 12:23:55;;;;;;;1.90;1.33;;;12.20;99.90;;;;;;5084630;28;20028;-60
2022/12/31 12:26:41;;;;;;;1.73;1.00;;;12.10;99.90;;;;;;5068176;28;20056;-60
2022/12/31 12:29:18;;;;;;;1.35;1.20;;;12.20;99.90;;;;;;5085884;28;20058;-59
2022/12/31 12:32:02;;;;;;;2.70;1.40;;;12.20;99.90;;;;;;5084766;28;20033;-60
2022/12/31 12:34:37;;;;;;;1.80;1.40;;;12.20;99.90;;;;;;5085460;28;20225;-59
2022/12/31 12:37:03;;;;;;;2.65;1.88;;;12.20;99.90;;;;;;5085353;28;20043;-60
2022/12/31 12:39:33;;;;;;;4.10;1.38;;;12.20;99.90;;;;;;5084300;28;20028;-59
2022/12/31 12:42:11;;;;;;;1.67;1.25;;;12.20;99.90;;;;;;5084267;28;20549;-59
2022/12/31 12:44:37;;;;;;;2.78;1.55;;;12.30;99.90;;;;;;5085395;28;20047;-60
2022/12/31 12:47:04;;;;;;;3.75;1.50;;;12.30;99.90;;;;;;5084122;28;20056;-60
2022/12/31 12:49:39;;;;;;;3.90;1.60;;;12.30;99.90;;;;;;5084052;28;20101;-59
2022/12/31 12:52:26;;;;;;;2.40;1.58;;;12.30;99.90;;;;;;5085211;28;20028;-59
2022/12/31 12:55:23;;;;;;;1.95;1.58;;;12.30;99.90;;;;;;5085436;28;20032;-60
2022/12/31 12:58:07;;;;;;;;;;;12.30;99.90;;;;;;5081725;28;20035;-60
2022/12/31 13:00:50;;;;;;;2.15;1.35;;;12.30;99.90;;;;;;5100213;28;19916;-59
2022/12/31 13:03:27;;;;;;;2.75;1.45;;;12.40;99.90;;;;;;5061650;28;20035;-60
2022/12/31 13:06:02;;;;;;;1.92;1.50;;;12.40;99.90;;;;;;5084232;28;20024;-60
2022/12/31 13:08:43;;;;;;;2.22;1.38;;;12.40;99.90;;;;;;5098099;28;20020;-60
2022/12/31 13:11:25;;;;;;;1.80;1.27;;;12.40;99.90;;;;;;5084770;28;20468;-59
2022/12/31 13:14:14;;;;;;;1.55;1.20;;;12.50;99.90;;;;;;5082865;28;20471;-59
2022/12/31 13:16:49;;;;;;;1.88;1.48;;;12.40;99.90;;;;;;5085089;28;20028;-59
2022/12/31 13:19:26;;;;;;;2.28;1.33;;;12.50;99.90;;;;;;5083519;28;20036;-59
2022/12/31 13:21:54;;;;;;;2.20;1.60;;;12.50;99.90;;;;;;5083491;28;20036;-60
2022/12/31 13:24:47;;;;;;;2.38;1.50;;;12.50;99.90;;;;;;5084738;28;20120;-60
2022/12/31 13:27:34;;;;;;;1.50;1.40;;;12.50;99.90;;;;;;5084876;28;20376;-59
2022/12/31 13:30:14;;;;;;;3.53;1.33;;;12.50;99.90;;;;;;5083636;28;20051;-59
2022/12/31 13:32:50;;;;;;;6.78;2.00;;;12.50;99.90;;;;;;5083456;28;20059;-60
2022/12/31 13:35:29;;;;;;;4.82;1.75;;;12.50;99.90;;;;;;5083543;28;20029;-59
2022/12/31 13:38:08;;;;;;;7.32;2.00;;;12.60;99.90;;;;;;5083306;28;20051;-60
2022/12/31 13:40:40;;;;;;;11.20;2.20;;;12.60;99.90;;;;;;5083560;28;20036;-59